sensor_id;sensor_type;location;lat;lon;timestamp;P1;durP1;ratioP1;P2;durP2;ratioP2
4074;SDS011;2052;53.522;9.806;2023-07-29T00:01:01;5.50;;;4.40;;
4074;SDS011;2052;53.522;9.806;2023-07-29T00:03:30;9.87;;;4.70;;
4074;SDS011;2052;53.522;9.806;2023-07-29T00:05:57;4.93;;;4.37;;
4074;SDS011;2052;53.522;9.806;2023-07-29T00:08:23;8.30;;;4.37;;
4074;SDS011;2052;53.522;9.806;2023-07-29T00:10:50;6.93;;;4.70;;
4074;SDS011;2052;53.522;9.806;2023-07-29T00:13:18;8.03;;;5.07;;
4074;SDS011;2052;53.522;9.806;2023-07-29T00:15:45;6.83;;;5.80;;
4074;SDS011;2052;53.522;9.806;2023-07-29T00:18:11;6.00;;;5.23;;
4074;SDS011;2052;53.522;9.806;2023-07-29T00:20:38;6.30;;;4.60;;
4074;SDS011;2052;53.522;9.806;2023-07-29T00:23:05;5.13;;;4.57;;
4074;SDS011;2052;53.522;9.806;2023-07-29T00:25:31;10.20;;;5.40;;
4074;SDS011;2052;53.522;9.806;2023-07-29T00:27:58;7.37;;;4.23;;
4074;SDS011;2052;53.522;9.806;2023-07-29T00:30:26;7.70;;;5.30;;
4074;SDS011;2052;53.522;9.806;2023-07-29T00:32:52;9.20;;;5.43;;
4074;SDS011;2052;53.522;9.806;2023-07-29T00:35:19;10.27;;;5.27;;
4074;SDS011;2052;53.522;9.806;2023-07-29T00:37:45;6.30;;;4.57;;
4074;SDS011;2052;53.522;9.806;2023-07-29T00:40:14;5.77;;;4.50;;
4074;SDS011;2052;53.522;9.806;2023-07-29T00:42:42;6.83;;;4.53;;
4074;SDS011;2052;53.522;9.806;2023-07-29T00:45:08;7.07;;;5.30;;
4074;SDS011;2052;53.522;9.806;2023-07-29T00:47:38;7.20;;;4.63;;
4074;SDS011;2052;53.522;9.806;2023-07-29T00:50:05;17.80;;;5.87;;
4074;SDS011;2052;53.522;9.806;2023-07-29T00:52:32;6.73;;;4.60;;
4074;SDS011;2052;53.522;9.806;2023-07-29T00:54:59;6.00;;;4.80;;
4074;SDS011;2052;53.522;9.806;2023-07-29T00:57:25;6.13;;;4.90;;
4074;SDS011;2052;53.522;9.806;2023-07-29T00:59:53;8.10;;;5.30;;
4074;SDS011;2052;53.522;9.806;2023-07-29T01:02:20;10.43;;;5.03;;
4074;SDS011;2052;53.522;9.806;2023-07-29T01:04:51;9.87;;;5.53;;
4074;SDS011;2052;53.522;9.806;2023-07-29T01:07:19;7.93;;;5.57;;
4074;SDS011;2052;53.522;9.806;2023-07-29T01:09:50;5.47;;;4.60;;
4074;SDS011;2052;53.522;9.806;2023-07-29T01:12:24;6.00;;;5.40;;
4074;SDS011;2052;53.522;9.806;2023-07-29T01:14:55;7.70;;;5.93;;
4074;SDS011;2052;53.522;9.806;2023-07-29T01:17:27;6.20;;;5.13;;
4074;SDS011;2052;53.522;9.806;2023-07-29T01:20:03;9.43;;;5.37;;
4074;SDS011;2052;53.522;9.806;2023-07-29T01:22:33;11.17;;;6.10;;
4074;SDS011;2052;53.522;9.806;2023-07-29T01:25:02;8.20;;;6.27;;
4074;SDS011;2052;53.522;9.806;2023-07-29T01:27:29;6.57;;;5.20;;
4074;SDS011;2052;53.522;9.806;2023-07-29T01:29:56;8.47;;;6.20;;
4074;SDS011;2052;53.522;9.806;2023-07-29T01:32:25;11.03;;;6.90;;
4074;SDS011;2052;53.522;9.806;2023-07-29T01:34:56;7.97;;;6.80;;
4074;SDS011;2052;53.522;9.806;2023-07-29T01:37:27;8.70;;;6.03;;
4074;SDS011;2052;53.522;9.806;2023-07-29T01:39:57;11.30;;;6.67;;
4074;SDS011;2052;53.522;9.806;2023-07-29T01:42:26;9.10;;;6.83;;
4074;SDS011;2052;53.522;9.806;2023-07-29T01:44:53;9.90;;;7.50;;
4074;SDS011;2052;53.522;9.806;2023-07-29T01:47:20;9.10;;;7.10;;
4074;SDS011;2052;53.522;9.806;2023-07-29T01:49:47;10.40;;;7.43;;
4074;SDS011;2052;53.522;9.806;2023-07-29T01:52:14;12.50;;;7.77;;
4074;SDS011;2052;53.522;9.806;2023-07-29T01:54:40;12.97;;;8.13;;
4074;SDS011;2052;53.522;9.806;2023-07-29T01:57:07;11.43;;;8.27;;
4074;SDS011;2052;53.522;9.806;2023-07-29T01:59:35;10.43;;;7.87;;
4074;SDS011;2052;53.522;9.806;2023-07-29T02:02:02;9.50;;;7.30;;
4074;SDS011;2052;53.522;9.806;2023-07-29T02:04:28;11.43;;;8.77;;
4074;SDS011;2052;53.522;9.806;2023-07-29T02:06:55;10.93;;;8.67;;
4074;SDS011;2052;53.522;9.806;2023-07-29T02:09:21;10.63;;;8.83;;
4074;SDS011;2052;53.522;9.806;2023-07-29T02:11:50;12.93;;;8.33;;
4074;SDS011;2052;53.522;9.806;2023-07-29T02:14:17;12.70;;;8.70;;
4074;SDS011;2052;53.522;9.806;2023-07-29T02:16:45;17.93;;;9.50;;
4074;SDS011;2052;53.522;9.806;2023-07-29T02:19:11;11.27;;;8.87;;
4074;SDS011;2052;53.522;9.806;2023-07-29T02:21:38;18.13;;;8.53;;
4074;SDS011;2052;53.522;9.806;2023-07-29T02:24:04;11.33;;;8.60;;
4074;SDS011;2052;53.522;9.806;2023-07-29T02:26:31;11.67;;;8.17;;
4074;SDS011;2052;53.522;9.806;2023-07-29T02:28:57;10.93;;;8.50;;
4074;SDS011;2052;53.522;9.806;2023-07-29T02:31:24;10.43;;;7.70;;
4074;SDS011;2052;53.522;9.806;2023-07-29T02:33:52;10.80;;;8.17;;
4074;SDS011;2052;53.522;9.806;2023-07-29T02:36:19;10.90;;;9.00;;
4074;SDS011;2052;53.522;9.806;2023-07-29T02:38:45;11.20;;;8.20;;
4074;SDS011;2052;53.522;9.806;2023-07-29T02:41:12;11.17;;;8.40;;
4074;SDS011;2052;53.522;9.806;2023-07-29T02:43:41;12.70;;;8.93;;
4074;SDS011;2052;53.522;9.806;2023-07-29T02:46:08;9.80;;;8.57;;
4074;SDS011;2052;53.522;9.806;2023-07-29T02:48:34;12.87;;;8.10;;
4074;SDS011;2052;53.522;9.806;2023-07-29T02:51:02;9.60;;;8.17;;
4074;SDS011;2052;53.522;9.806;2023-07-29T02:53:29;13.17;;;9.00;;
4074;SDS011;2052;53.522;9.806;2023-07-29T02:55:55;11.07;;;9.00;;
4074;SDS011;2052;53.522;9.806;2023-07-29T02:58:22;11.80;;;8.60;;
4074;SDS011;2052;53.522;9.806;2023-07-29T03:00:48;13.47;;;9.60;;
4074;SDS011;2052;53.522;9.806;2023-07-29T03:03:15;13.20;;;9.43;;
4074;SDS011;2052;53.522;9.806;2023-07-29T03:05:41;13.20;;;9.63;;
4074;SDS011;2052;53.522;9.806;2023-07-29T03:08:09;13.40;;;9.03;;
4074;SDS011;2052;53.522;9.806;2023-07-29T03:10:36;12.80;;;7.70;;
4074;SDS011;2052;53.522;9.806;2023-07-29T03:13:02;13.30;;;8.73;;
4074;SDS011;2052;53.522;9.806;2023-07-29T03:15:29;11.10;;;9.27;;
4074;SDS011;2052;53.522;9.806;2023-07-29T03:17:55;10.93;;;8.57;;
4074;SDS011;2052;53.522;9.806;2023-07-29T03:20:22;11.27;;;8.50;;
4074;SDS011;2052;53.522;9.806;2023-07-29T03:22:48;12.30;;;9.40;;
4074;SDS011;2052;53.522;9.806;2023-07-29T03:25:16;13.10;;;8.70;;
4074;SDS011;2052;53.522;9.806;2023-07-29T03:27:43;14.17;;;9.67;;
4074;SDS011;2052;53.522;9.806;2023-07-29T03:30:10;11.93;;;9.03;;
4074;SDS011;2052;53.522;9.806;2023-07-29T03:32:39;15.40;;;10.60;;
4074;SDS011;2052;53.522;9.806;2023-07-29T03:35:09;17.33;;;11.53;;
4074;SDS011;2052;53.522;9.806;2023-07-29T03:37:35;16.03;;;10.90;;
4074;SDS011;2052;53.522;9.806;2023-07-29T03:40:02;17.73;;;11.60;;
4074;SDS011;2052;53.522;9.806;2023-07-29T03:42:31;19.20;;;12.53;;
4074;SDS011;2052;53.522;9.806;2023-07-29T03:44:57;18.70;;;12.47;;
4074;SDS011;2052;53.522;9.806;2023-07-29T03:47:24;19.47;;;12.47;;
4074;SDS011;2052;53.522;9.806;2023-07-29T03:49:51;19.83;;;12.20;;
4074;SDS011;2052;53.522;9.806;2023-07-29T03:52:19;21.13;;;13.43;;
4074;SDS011;2052;53.522;9.806;2023-07-29T03:54:46;20.27;;;13.70;;
4074;SDS011;2052;53.522;9.806;2023-07-29T03:57:12;23.77;;;15.07;;
4074;SDS011;2052;53.522;9.806;2023-07-29T03:59:40;28.10;;;16.07;;
4074;SDS011;2052;53.522;9.806;2023-07-29T04:02:06;27.30;;;16.37;;
4074;SDS011;2052;53.522;9.806;2023-07-29T04:04:33;32.63;;;17.70;;
4074;SDS011;2052;53.522;9.806;2023-07-29T04:07:00;30.57;;;20.17;;
4074;SDS011;2052;53.522;9.806;2023-07-29T04:09:26;28.50;;;18.27;;
4074;SDS011;2052;53.522;9.806;2023-07-29T04:11:53;32.93;;;19.90;;
4074;SDS011;2052;53.522;9.806;2023-07-29T04:14:19;34.10;;;20.60;;
4074;SDS011;2052;53.522;9.806;2023-07-29T04:16:47;36.00;;;19.90;;
4074;SDS011;2052;53.522;9.806;2023-07-29T04:19:14;35.47;;;20.73;;
4074;SDS011;2052;53.522;9.806;2023-07-29T04:21:41;33.53;;;19.80;;
4074;SDS011;2052;53.522;9.806;2023-07-29T04:24:07;39.60;;;21.10;;
4074;SDS011;2052;53.522;9.806;2023-07-29T04:26:34;39.73;;;23.27;;
4074;SDS011;2052;53.522;9.806;2023-07-29T04:29:00;42.60;;;22.17;;
4074;SDS011;2052;53.522;9.806;2023-07-29T04:31:27;35.80;;;21.37;;
4074;SDS011;2052;53.522;9.806;2023-07-29T04:33:55;32.07;;;20.43;;
4074;SDS011;2052;53.522;9.806;2023-07-29T04:36:21;35.90;;;21.70;;
4074;SDS011;2052;53.522;9.806;2023-07-29T04:38:48;35.17;;;22.47;;
4074;SDS011;2052;53.522;9.806;2023-07-29T04:41:14;40.97;;;22.53;;
4074;SDS011;2052;53.522;9.806;2023-07-29T04:43:41;38.40;;;21.60;;
4074;SDS011;2052;53.522;9.806;2023-07-29T04:46:08;43.30;;;21.80;;
4074;SDS011;2052;53.522;9.806;2023-07-29T04:48:35;42.13;;;22.67;;
4074;SDS011;2052;53.522;9.806;2023-07-29T04:51:02;38.57;;;23.43;;
4074;SDS011;2052;53.522;9.806;2023-07-29T04:53:29;38.00;;;24.43;;
4074;SDS011;2052;53.522;9.806;2023-07-29T04:55:55;37.40;;;22.63;;
4074;SDS011;2052;53.522;9.806;2023-07-29T04:58:22;41.40;;;21.83;;
4074;SDS011;2052;53.522;9.806;2023-07-29T05:00:48;41.20;;;22.10;;
4074;SDS011;2052;53.522;9.806;2023-07-29T05:03:15;37.07;;;22.00;;
4074;SDS011;2052;53.522;9.806;2023-07-29T05:05:42;36.87;;;21.30;;
4074;SDS011;2052;53.522;9.806;2023-07-29T05:08:09;38.33;;;21.70;;
4074;SDS011;2052;53.522;9.806;2023-07-29T05:10:36;39.93;;;22.40;;
4074;SDS011;2052;53.522;9.806;2023-07-29T05:13:02;37.20;;;22.63;;
4074;SDS011;2052;53.522;9.806;2023-07-29T05:15:29;35.60;;;21.63;;
4074;SDS011;2052;53.522;9.806;2023-07-29T05:17:55;35.57;;;20.73;;
4074;SDS011;2052;53.522;9.806;2023-07-29T05:20:22;33.03;;;20.97;;
4074;SDS011;2052;53.522;9.806;2023-07-29T05:22:49;35.00;;;22.77;;
4074;SDS011;2052;53.522;9.806;2023-07-29T05:25:17;30.70;;;20.83;;
4074;SDS011;2052;53.522;9.806;2023-07-29T05:27:43;35.80;;;22.60;;
4074;SDS011;2052;53.522;9.806;2023-07-29T05:30:10;27.53;;;18.73;;
4074;SDS011;2052;53.522;9.806;2023-07-29T05:32:50;30.53;;;19.00;;
4074;SDS011;2052;53.522;9.806;2023-07-29T05:35:17;34.37;;;19.80;;
4074;SDS011;2052;53.522;9.806;2023-07-29T05:37:44;28.50;;;18.60;;
4074;SDS011;2052;53.522;9.806;2023-07-29T05:40:10;30.57;;;19.97;;
4074;SDS011;2052;53.522;9.806;2023-07-29T05:42:38;31.67;;;19.50;;
4074;SDS011;2052;53.522;9.806;2023-07-29T05:45:05;32.67;;;19.77;;
4074;SDS011;2052;53.522;9.806;2023-07-29T05:47:33;29.10;;;18.63;;
4074;SDS011;2052;53.522;9.806;2023-07-29T05:50:01;33.57;;;20.00;;
4074;SDS011;2052;53.522;9.806;2023-07-29T05:52:29;33.97;;;21.50;;
4074;SDS011;2052;53.522;9.806;2023-07-29T05:54:56;33.70;;;21.23;;
4074;SDS011;2052;53.522;9.806;2023-07-29T05:57:22;35.10;;;21.17;;
4074;SDS011;2052;53.522;9.806;2023-07-29T05:59:50;36.80;;;22.47;;
4074;SDS011;2052;53.522;9.806;2023-07-29T06:02:19;34.00;;;22.37;;
4074;SDS011;2052;53.522;9.806;2023-07-29T06:04:45;34.77;;;22.23;;
4074;SDS011;2052;53.522;9.806;2023-07-29T06:07:12;37.53;;;21.80;;
4074;SDS011;2052;53.522;9.806;2023-07-29T06:09:38;34.83;;;21.97;;
4074;SDS011;2052;53.522;9.806;2023-07-29T06:12:05;31.57;;;20.13;;
4074;SDS011;2052;53.522;9.806;2023-07-29T06:14:32;31.47;;;20.40;;
4074;SDS011;2052;53.522;9.806;2023-07-29T06:17:00;26.80;;;18.90;;
4074;SDS011;2052;53.522;9.806;2023-07-29T06:19:27;32.43;;;19.43;;
4074;SDS011;2052;53.522;9.806;2023-07-29T06:21:55;27.20;;;18.90;;
4074;SDS011;2052;53.522;9.806;2023-07-29T06:24:22;29.67;;;20.40;;
4074;SDS011;2052;53.522;9.806;2023-07-29T06:26:48;30.93;;;20.30;;
4074;SDS011;2052;53.522;9.806;2023-07-29T06:29:16;30.73;;;19.07;;
4074;SDS011;2052;53.522;9.806;2023-07-29T06:31:42;36.70;;;22.53;;
4074;SDS011;2052;53.522;9.806;2023-07-29T06:34:10;32.03;;;20.33;;
4074;SDS011;2052;53.522;9.806;2023-07-29T06:36:37;36.10;;;20.50;;
4074;SDS011;2052;53.522;9.806;2023-07-29T06:39:03;35.47;;;21.83;;
4074;SDS011;2052;53.522;9.806;2023-07-29T06:41:30;28.70;;;18.70;;
4074;SDS011;2052;53.522;9.806;2023-07-29T06:43:56;33.40;;;20.80;;
4074;SDS011;2052;53.522;9.806;2023-07-29T06:46:23;39.57;;;20.60;;
4074;SDS011;2052;53.522;9.806;2023-07-29T06:48:49;29.90;;;20.47;;
4074;SDS011;2052;53.522;9.806;2023-07-29T06:51:17;34.70;;;21.00;;
4074;SDS011;2052;53.522;9.806;2023-07-29T06:53:44;41.00;;;19.73;;
4074;SDS011;2052;53.522;9.806;2023-07-29T06:56:11;27.30;;;18.60;;
4074;SDS011;2052;53.522;9.806;2023-07-29T06:58:38;27.80;;;18.47;;
4074;SDS011;2052;53.522;9.806;2023-07-29T07:01:05;30.33;;;17.37;;
4074;SDS011;2052;53.522;9.806;2023-07-29T07:03:31;25.63;;;17.67;;
4074;SDS011;2052;53.522;9.806;2023-07-29T07:06:02;24.50;;;17.17;;
4074;SDS011;2052;53.522;9.806;2023-07-29T07:08:32;27.83;;;17.30;;
4074;SDS011;2052;53.522;9.806;2023-07-29T07:10:58;27.83;;;15.53;;
4074;SDS011;2052;53.522;9.806;2023-07-29T07:13:25;25.97;;;17.50;;
4074;SDS011;2052;53.522;9.806;2023-07-29T07:15:54;26.33;;;16.60;;
4074;SDS011;2052;53.522;9.806;2023-07-29T07:18:20;22.60;;;16.10;;
4074;SDS011;2052;53.522;9.806;2023-07-29T07:20:47;22.93;;;15.80;;
4074;SDS011;2052;53.522;9.806;2023-07-29T07:23:14;29.23;;;16.20;;
4074;SDS011;2052;53.522;9.806;2023-07-29T07:25:42;25.50;;;16.83;;
4074;SDS011;2052;53.522;9.806;2023-07-29T07:28:09;22.10;;;15.83;;
4074;SDS011;2052;53.522;9.806;2023-07-29T07:30:39;21.37;;;15.13;;
4074;SDS011;2052;53.522;9.806;2023-07-29T07:33:05;25.13;;;17.17;;
4074;SDS011;2052;53.522;9.806;2023-07-29T07:35:32;27.53;;;16.57;;
4074;SDS011;2052;53.522;9.806;2023-07-29T07:38:19;24.37;;;15.33;;
4074;SDS011;2052;53.522;9.806;2023-07-29T07:40:55;24.20;;;15.87;;
4074;SDS011;2052;53.522;9.806;2023-07-29T07:43:22;21.67;;;15.67;;
4074;SDS011;2052;53.522;9.806;2023-07-29T07:45:49;25.17;;;15.60;;
4074;SDS011;2052;53.522;9.806;2023-07-29T07:48:16;26.03;;;16.77;;
4074;SDS011;2052;53.522;9.806;2023-07-29T07:50:42;24.07;;;14.60;;
4074;SDS011;2052;53.522;9.806;2023-07-29T07:53:10;23.20;;;15.93;;
4074;SDS011;2052;53.522;9.806;2023-07-29T07:55:37;25.73;;;15.60;;
4074;SDS011;2052;53.522;9.806;2023-07-29T07:58:05;26.50;;;17.53;;
4074;SDS011;2052;53.522;9.806;2023-07-29T08:00:32;28.40;;;17.93;;
4074;SDS011;2052;53.522;9.806;2023-07-29T08:02:58;26.47;;;15.93;;
4074;SDS011;2052;53.522;9.806;2023-07-29T08:05:25;25.53;;;16.57;;
4074;SDS011;2052;53.522;9.806;2023-07-29T08:07:51;24.90;;;15.87;;
4074;SDS011;2052;53.522;9.806;2023-07-29T08:10:18;27.47;;;16.37;;
4074;SDS011;2052;53.522;9.806;2023-07-29T08:12:45;27.90;;;16.47;;
4074;SDS011;2052;53.522;9.806;2023-07-29T08:15:21;30.60;;;16.80;;
4074;SDS011;2052;53.522;9.806;2023-07-29T08:17:48;24.90;;;16.80;;
4074;SDS011;2052;53.522;9.806;2023-07-29T08:20:15;30.97;;;17.10;;
4074;SDS011;2052;53.522;9.806;2023-07-29T08:22:42;30.70;;;19.30;;
4074;SDS011;2052;53.522;9.806;2023-07-29T08:25:08;24.87;;;17.27;;
4074;SDS011;2052;53.522;9.806;2023-07-29T08:27:35;31.77;;;18.53;;
4074;SDS011;2052;53.522;9.806;2023-07-29T08:30:01;27.33;;;18.13;;
4074;SDS011;2052;53.522;9.806;2023-07-29T08:32:29;25.00;;;16.83;;
4074;SDS011;2052;53.522;9.806;2023-07-29T08:34:56;27.30;;;17.77;;
4074;SDS011;2052;53.522;9.806;2023-07-29T08:37:23;27.10;;;17.93;;
4074;SDS011;2052;53.522;9.806;2023-07-29T08:39:52;26.87;;;17.67;;
4074;SDS011;2052;53.522;9.806;2023-07-29T08:42:19;24.30;;;16.47;;
4074;SDS011;2052;53.522;9.806;2023-07-29T08:44:47;24.90;;;17.73;;
4074;SDS011;2052;53.522;9.806;2023-07-29T08:47:15;23.80;;;16.93;;
4074;SDS011;2052;53.522;9.806;2023-07-29T08:49:43;21.87;;;16.20;;
4074;SDS011;2052;53.522;9.806;2023-07-29T08:52:11;23.73;;;15.47;;
4074;SDS011;2052;53.522;9.806;2023-07-29T08:54:42;22.57;;;15.70;;
4074;SDS011;2052;53.522;9.806;2023-07-29T08:57:18;19.63;;;15.20;;
4074;SDS011;2052;53.522;9.806;2023-07-29T08:59:45;22.37;;;14.90;;
4074;SDS011;2052;53.522;9.806;2023-07-29T09:02:21;27.40;;;18.23;;
4074;SDS011;2052;53.522;9.806;2023-07-29T09:04:52;28.47;;;17.23;;
4074;SDS011;2052;53.522;9.806;2023-07-29T09:07:22;20.57;;;15.80;;
4074;SDS011;2052;53.522;9.806;2023-07-29T09:09:49;21.87;;;15.10;;
4074;SDS011;2052;53.522;9.806;2023-07-29T09:12:16;27.63;;;15.30;;
4074;SDS011;2052;53.522;9.806;2023-07-29T09:14:43;20.43;;;14.13;;
4074;SDS011;2052;53.522;9.806;2023-07-29T09:17:11;19.83;;;14.97;;
4074;SDS011;2052;53.522;9.806;2023-07-29T09:19:38;20.47;;;13.80;;
4074;SDS011;2052;53.522;9.806;2023-07-29T09:22:07;19.10;;;13.53;;
4074;SDS011;2052;53.522;9.806;2023-07-29T09:24:45;19.20;;;14.10;;
4074;SDS011;2052;53.522;9.806;2023-07-29T09:27:23;20.03;;;12.17;;
4074;SDS011;2052;53.522;9.806;2023-07-29T09:29:53;17.30;;;12.60;;
4074;SDS011;2052;53.522;9.806;2023-07-29T09:32:25;19.60;;;13.20;;
4074;SDS011;2052;53.522;9.806;2023-07-29T09:34:52;13.60;;;10.30;;
4074;SDS011;2052;53.522;9.806;2023-07-29T09:37:21;11.80;;;9.40;;
4074;SDS011;2052;53.522;9.806;2023-07-29T09:39:48;12.77;;;10.13;;
4074;SDS011;2052;53.522;9.806;2023-07-29T09:42:17;11.00;;;8.03;;
4074;SDS011;2052;53.522;9.806;2023-07-29T09:44:45;12.10;;;7.50;;
4074;SDS011;2052;53.522;9.806;2023-07-29T09:47:18;10.30;;;8.17;;
4074;SDS011;2052;53.522;9.806;2023-07-29T09:49:45;11.10;;;7.50;;
4074;SDS011;2052;53.522;9.806;2023-07-29T09:52:12;11.10;;;8.03;;
4074;SDS011;2052;53.522;9.806;2023-07-29T09:54:42;8.77;;;7.27;;
4074;SDS011;2052;53.522;9.806;2023-07-29T09:57:10;8.03;;;6.27;;
4074;SDS011;2052;53.522;9.806;2023-07-29T09:59:37;7.63;;;6.10;;
4074;SDS011;2052;53.522;9.806;2023-07-29T10:02:04;11.60;;;5.70;;
4074;SDS011;2052;53.522;9.806;2023-07-29T10:04:34;10.07;;;6.10;;
4074;SDS011;2052;53.522;9.806;2023-07-29T10:07:04;8.47;;;6.00;;
4074;SDS011;2052;53.522;9.806;2023-07-29T10:09:33;8.40;;;4.80;;
4074;SDS011;2052;53.522;9.806;2023-07-29T10:14:55;4.90;;;4.23;;
4074;SDS011;2052;53.522;9.806;2023-07-29T10:17:25;9.60;;;6.17;;
4074;SDS011;2052;53.522;9.806;2023-07-29T10:19:52;6.57;;;5.67;;
4074;SDS011;2052;53.522;9.806;2023-07-29T10:22:20;7.50;;;4.60;;
4074;SDS011;2052;53.522;9.806;2023-07-29T10:24:47;6.70;;;4.83;;
4074;SDS011;2052;53.522;9.806;2023-07-29T10:27:15;5.83;;;5.17;;
4074;SDS011;2052;53.522;9.806;2023-07-29T10:29:45;5.50;;;5.00;;
4074;SDS011;2052;53.522;9.806;2023-07-29T10:32:12;8.30;;;5.30;;
4074;SDS011;2052;53.522;9.806;2023-07-29T10:34:39;4.60;;;4.20;;
4074;SDS011;2052;53.522;9.806;2023-07-29T10:37:07;7.70;;;4.40;;
4074;SDS011;2052;53.522;9.806;2023-07-29T10:39:37;7.97;;;3.93;;
4074;SDS011;2052;53.522;9.806;2023-07-29T10:42:07;3.63;;;3.33;;
4074;SDS011;2052;53.522;9.806;2023-07-29T10:48:06;3.70;;;3.40;;
4074;SDS011;2052;53.522;9.806;2023-07-29T10:50:37;3.90;;;3.30;;
4074;SDS011;2052;53.522;9.806;2023-07-29T10:53:04;3.10;;;2.80;;
4074;SDS011;2052;53.522;9.806;2023-07-29T10:55:31;3.50;;;2.67;;
4074;SDS011;2052;53.522;9.806;2023-07-29T10:58:08;2.70;;;2.50;;
4074;SDS011;2052;53.522;9.806;2023-07-29T11:00:38;3.63;;;2.70;;
4074;SDS011;2052;53.522;9.806;2023-07-29T11:03:10;3.10;;;2.70;;
4074;SDS011;2052;53.522;9.806;2023-07-29T11:05:46;3.77;;;2.13;;
4074;SDS011;2052;53.522;9.806;2023-07-29T11:08:22;3.00;;;2.20;;
4074;SDS011;2052;53.522;9.806;2023-07-29T11:11:04;3.20;;;2.70;;
4074;SDS011;2052;53.522;9.806;2023-07-29T11:13:32;3.37;;;2.73;;
4074;SDS011;2052;53.522;9.806;2023-07-29T11:15:59;3.40;;;2.70;;
4074;SDS011;2052;53.522;9.806;2023-07-29T11:18:29;4.00;;;2.50;;
4074;SDS011;2052;53.522;9.806;2023-07-29T11:21:03;3.00;;;2.43;;
4074;SDS011;2052;53.522;9.806;2023-07-29T11:23:33;2.97;;;2.60;;
4074;SDS011;2052;53.522;9.806;2023-07-29T11:26:01;3.37;;;2.80;;
4074;SDS011;2052;53.522;9.806;2023-07-29T11:28:28;3.40;;;3.10;;
4074;SDS011;2052;53.522;9.806;2023-07-29T11:30:57;2.57;;;2.33;;
4074;SDS011;2052;53.522;9.806;2023-07-29T11:33:25;2.87;;;2.53;;
4074;SDS011;2052;53.522;9.806;2023-07-29T11:35:58;3.80;;;3.17;;
4074;SDS011;2052;53.522;9.806;2023-07-29T11:38:25;3.47;;;2.50;;
4074;SDS011;2052;53.522;9.806;2023-07-29T11:40:55;2.97;;;2.70;;
4074;SDS011;2052;53.522;9.806;2023-07-29T11:43:24;3.93;;;2.70;;
4074;SDS011;2052;53.522;9.806;2023-07-29T11:45:51;4.03;;;2.97;;
4074;SDS011;2052;53.522;9.806;2023-07-29T11:48:26;2.73;;;2.53;;
4074;SDS011;2052;53.522;9.806;2023-07-29T11:50:54;3.07;;;2.50;;
4074;SDS011;2052;53.522;9.806;2023-07-29T11:53:22;4.40;;;2.70;;
4074;SDS011;2052;53.522;9.806;2023-07-29T11:55:50;2.30;;;2.10;;
4074;SDS011;2052;53.522;9.806;2023-07-29T11:58:18;3.47;;;2.27;;
4074;SDS011;2052;53.522;9.806;2023-07-29T12:00:44;3.90;;;1.70;;
4074;SDS011;2052;53.522;9.806;2023-07-29T12:03:12;2.93;;;2.03;;
4074;SDS011;2052;53.522;9.806;2023-07-29T12:05:40;2.07;;;1.80;;
4074;SDS011;2052;53.522;9.806;2023-07-29T12:08:12;3.00;;;2.10;;
4074;SDS011;2052;53.522;9.806;2023-07-29T12:10:39;2.43;;;2.23;;
4074;SDS011;2052;53.522;9.806;2023-07-29T12:13:07;2.43;;;2.03;;
4074;SDS011;2052;53.522;9.806;2023-07-29T12:15:37;2.10;;;1.90;;
4074;SDS011;2052;53.522;9.806;2023-07-29T12:18:04;2.10;;;1.97;;
4074;SDS011;2052;53.522;9.806;2023-07-29T12:20:33;2.23;;;2.03;;
4074;SDS011;2052;53.522;9.806;2023-07-29T12:23:00;4.57;;;2.03;;
4074;SDS011;2052;53.522;9.806;2023-07-29T12:25:29;4.23;;;2.53;;
4074;SDS011;2052;53.522;9.806;2023-07-29T12:27:55;4.70;;;2.27;;
4074;SDS011;2052;53.522;9.806;2023-07-29T12:30:22;3.00;;;2.10;;
4074;SDS011;2052;53.522;9.806;2023-07-29T12:32:50;2.07;;;1.87;;
4074;SDS011;2052;53.522;9.806;2023-07-29T12:35:17;2.50;;;2.30;;
4074;SDS011;2052;53.522;9.806;2023-07-29T12:37:44;4.40;;;1.87;;
4074;SDS011;2052;53.522;9.806;2023-07-29T12:40:21;2.30;;;2.10;;
4074;SDS011;2052;53.522;9.806;2023-07-29T12:42:57;2.03;;;1.87;;
4074;SDS011;2052;53.522;9.806;2023-07-29T12:45:24;2.03;;;1.80;;
4074;SDS011;2052;53.522;9.806;2023-07-29T12:47:53;3.67;;;2.33;;
4074;SDS011;2052;53.522;9.806;2023-07-29T12:50:20;3.33;;;2.40;;
4074;SDS011;2052;53.522;9.806;2023-07-29T12:52:48;3.87;;;2.10;;
4074;SDS011;2052;53.522;9.806;2023-07-29T12:55:15;4.93;;;2.00;;
4074;SDS011;2052;53.522;9.806;2023-07-29T12:57:42;8.23;;;2.83;;
4074;SDS011;2052;53.522;9.806;2023-07-29T13:00:11;2.10;;;1.53;;
4074;SDS011;2052;53.522;9.806;2023-07-29T13:02:41;2.03;;;1.90;;
4074;SDS011;2052;53.522;9.806;2023-07-29T13:05:14;3.90;;;2.23;;
4074;SDS011;2052;53.522;9.806;2023-07-29T13:07:44;6.60;;;2.13;;
4074;SDS011;2052;53.522;9.806;2023-07-29T13:10:14;2.97;;;2.27;;
4074;SDS011;2052;53.522;9.806;2023-07-29T13:12:41;2.23;;;2.03;;
4074;SDS011;2052;53.522;9.806;2023-07-29T13:15:07;3.83;;;2.07;;
4074;SDS011;2052;53.522;9.806;2023-07-29T13:17:39;3.20;;;2.33;;
4074;SDS011;2052;53.522;9.806;2023-07-29T13:20:07;4.10;;;2.03;;
4074;SDS011;2052;53.522;9.806;2023-07-29T13:22:34;2.20;;;1.70;;
4074;SDS011;2052;53.522;9.806;2023-07-29T13:25:00;2.53;;;2.33;;
4074;SDS011;2052;53.522;9.806;2023-07-29T13:27:27;2.27;;;2.10;;
4074;SDS011;2052;53.522;9.806;2023-07-29T13:29:54;2.30;;;2.10;;
4074;SDS011;2052;53.522;9.806;2023-07-29T13:32:20;2.57;;;2.33;;
4074;SDS011;2052;53.522;9.806;2023-07-29T13:34:48;2.50;;;2.30;;
4074;SDS011;2052;53.522;9.806;2023-07-29T13:37:16;6.17;;;2.63;;
4074;SDS011;2052;53.522;9.806;2023-07-29T13:39:45;2.60;;;2.40;;
4074;SDS011;2052;53.522;9.806;2023-07-29T13:42:13;2.50;;;2.30;;
4074;SDS011;2052;53.522;9.806;2023-07-29T13:44:41;4.40;;;2.27;;
4074;SDS011;2052;53.522;9.806;2023-07-29T13:47:07;5.43;;;2.10;;
4074;SDS011;2052;53.522;9.806;2023-07-29T13:49:34;2.03;;;1.83;;
4074;SDS011;2052;53.522;9.806;2023-07-29T13:52:03;3.67;;;2.30;;
4074;SDS011;2052;53.522;9.806;2023-07-29T13:54:30;2.50;;;2.30;;
4074;SDS011;2052;53.522;9.806;2023-07-29T13:57:13;2.40;;;2.10;;
4074;SDS011;2052;53.522;9.806;2023-07-29T13:59:43;4.77;;;2.40;;
4074;SDS011;2052;53.522;9.806;2023-07-29T14:02:10;2.00;;;1.90;;
4074;SDS011;2052;53.522;9.806;2023-07-29T14:04:41;2.23;;;2.07;;
4074;SDS011;2052;53.522;9.806;2023-07-29T14:07:09;6.57;;;2.17;;
4074;SDS011;2052;53.522;9.806;2023-07-29T14:09:35;1.87;;;1.77;;
4074;SDS011;2052;53.522;9.806;2023-07-29T14:12:03;1.80;;;1.70;;
4074;SDS011;2052;53.522;9.806;2023-07-29T14:14:30;2.40;;;2.20;;
4074;SDS011;2052;53.522;9.806;2023-07-29T14:16:59;2.27;;;2.07;;
4074;SDS011;2052;53.522;9.806;2023-07-29T14:19:26;3.50;;;2.17;;
4074;SDS011;2052;53.522;9.806;2023-07-29T14:21:52;2.43;;;2.23;;
4074;SDS011;2052;53.522;9.806;2023-07-29T14:24:21;4.67;;;2.77;;
4074;SDS011;2052;53.522;9.806;2023-07-29T14:26:47;2.50;;;2.10;;
4074;SDS011;2052;53.522;9.806;2023-07-29T14:29:17;2.30;;;1.97;;
4074;SDS011;2052;53.522;9.806;2023-07-29T14:31:44;2.47;;;2.03;;
4074;SDS011;2052;53.522;9.806;2023-07-29T14:34:10;1.97;;;1.80;;
4074;SDS011;2052;53.522;9.806;2023-07-29T14:36:39;1.93;;;1.80;;
4074;SDS011;2052;53.522;9.806;2023-07-29T14:39:07;2.40;;;1.70;;
4074;SDS011;2052;53.522;9.806;2023-07-29T14:41:35;3.20;;;2.07;;
4074;SDS011;2052;53.522;9.806;2023-07-29T14:44:01;3.00;;;2.00;;
4074;SDS011;2052;53.522;9.806;2023-07-29T14:46:31;5.30;;;2.83;;
4074;SDS011;2052;53.522;9.806;2023-07-29T14:48:58;2.90;;;2.33;;
4074;SDS011;2052;53.522;9.806;2023-07-29T14:51:24;2.60;;;2.17;;
4074;SDS011;2052;53.522;9.806;2023-07-29T14:53:51;3.17;;;2.07;;
4074;SDS011;2052;53.522;9.806;2023-07-29T14:56:21;3.43;;;2.53;;
4074;SDS011;2052;53.522;9.806;2023-07-29T14:58:51;3.20;;;2.43;;
4074;SDS011;2052;53.522;9.806;2023-07-29T15:01:19;3.23;;;2.40;;
4074;SDS011;2052;53.522;9.806;2023-07-29T15:03:48;2.13;;;1.97;;
4074;SDS011;2052;53.522;9.806;2023-07-29T15:06:15;3.30;;;2.40;;
4074;SDS011;2052;53.522;9.806;2023-07-29T15:08:43;3.00;;;2.20;;
4074;SDS011;2052;53.522;9.806;2023-07-29T15:11:10;3.47;;;2.20;;
4074;SDS011;2052;53.522;9.806;2023-07-29T15:13:36;2.20;;;2.00;;